Weather reports worldwide

Advertisment
Cadiz, Spain (8452): temperature & dewpoint: 17.05.2019 14:00:00 - 23.05.2019 14:00:00 (CEST)Cadiz, Spain (8452): wind speed & gusts: 17.05.2019 14:00:00 - 23.05.2019 14:00:00 (CEST)Cadiz, Spain (8452): wind direction: 17.05.2019 14:00:00 - 23.05.2019 14:00:00 (CEST)Cadiz, Spain (8452): reduced air pressure: 17.05.2019 14:00:00 - 23.05.2019 14:00:00 (CEST)Cadiz, Spain (8452): precipitation: 17.05.2019 14:00:00 - 23.05.2019 14:00:00 (CEST)
Date & Time tt [°C] td [°C] ff [km/h] ff [kn] fx [km/h] fx [kn] dd ppp [hPa] rr [mm]
23.05.2019 14:00:00 - - - - - - - - -
23.05.2019 13:00:00 25,1 14,2 8 5 11 6 NNW 1017,7 0,0
23.05.2019 12:00:00 23,7 15,2 8 4 9 5 N 1017,7 0,0
23.05.2019 11:00:00 22,9 13,9 3 2 6 3 NNW 1017,8 0,0
23.05.2019 10:00:00 20,2 15,0 6 3 8 5 N 1017,7 0,0
23.05.2019 09:00:00 19,6 13,6 3 2 6 3 N 1017,3 0,0
23.05.2019 08:00:00 18,8 13,0 4 2 8 4 NNE 1016,9 -
23.05.2019 07:00:00 18,3 13,2 4 2 9 5 NNE 1016,8 0,0
23.05.2019 06:00:00 18,0 13,1 3 1 11 6 N 1016,9 0,0
23.05.2019 05:00:00 18,3 13,6 6 4 15 8 NNE 1017,0 0,0
23.05.2019 04:00:00 19,2 14,0 9 5 14 7 NNE 1017,0 0,0
23.05.2019 03:00:00 19,4 11,9 10 6 14 7 NNE 1017,5 0,0
23.05.2019 02:00:00 20,0 11,4 6 4 13 7 ENE 1017,9 -
23.05.2019 01:00:00 20,9 11,2 6 4 11 6 SE 1017,8 0,0
23.05.2019 00:00:00 20,2 14,3 5 3 13 7 E 1017,7 0,0
22.05.2019 23:00:00 19,9 16,0 9 5 11 6 NNW 1017,2 0,0
22.05.2019 22:00:00 20,0 15,9 1 1 16 9 N 1016,9 0,0
22.05.2019 21:00:00 21,0 16,2 11 6 18 10 WNW 1016,6 0,0
22.05.2019 20:00:00 22,0 16,5 10 5 19 10 W 1016,3 -
22.05.2019 19:00:00 22,3 16,3 10 6 23 13 W 1016,4 0,0
22.05.2019 18:00:00 22,7 16,2 12 6 19 10 WSW 1016,5 0,0
22.05.2019 17:00:00 22,4 16,2 13 7 21 12 W 1016,6 0,0
22.05.2019 16:00:00 22,1 16,1 15 8 24 13 W 1016,8 0,0
22.05.2019 15:00:00 23,3 16,3 16 8 23 13 W 1017,1 0,0
22.05.2019 14:00:00 22,9 16,0 14 8 47 25 W 1017,3 -
22.05.2019 13:00:00 23,2 15,5 13 7 18 10 WSW 1017,3 0,0
22.05.2019 12:00:00 23,7 14,4 5 3 18 10 SSW 1017,3 0,0
22.05.2019 11:00:00 22,3 14,9 9 5 16 9 SSE 1017,2 0,0
22.05.2019 10:00:00 20,0 14,1 9 5 16 9 SE 1017,1 0,0
22.05.2019 09:00:00 - - 14 8 24 13 SE - 0,0
22.05.2019 08:00:00 17,5 13,5 16 9 21 12 SE 1016,3 -
22.05.2019 07:00:00 17,3 15,1 8 5 13 7 ESE 1015,6 0,0
22.05.2019 06:00:00 17,6 15,4 5 3 14 7 SSE 1015,5 0,0
22.05.2019 05:00:00 17,5 15,5 12 7 19 11 SE 1016,0 0,0
22.05.2019 04:00:00 17,9 15,7 15 8 18 10 SE 1016,1 0,0
22.05.2019 03:00:00 19,0 15,9 6 3 10 5 NNW 1016,1 0,0
22.05.2019 02:00:00 18,9 15,3 4 2 12 7 NW 1016,3 -
22.05.2019 01:00:00 18,8 15,4 5 3 12 7 WNW 1016,3 0,0
22.05.2019 00:00:00 18,9 15,5 6 4 19 10 WNW 1016,6 0,0
21.05.2019 23:00:00 18,8 15,7 14 8 25 14 W 1016,3 0,0
21.05.2019 22:00:00 18,9 15,8 17 9 27 14 W 1015,8 0,0
21.05.2019 21:00:00 20,1 15,5 16 9 30 16 W 1015,4 0,0
21.05.2019 20:00:00 20,7 15,4 17 9 30 16 W 1015,2 -
21.05.2019 19:00:00 20,6 15,3 20 11 31 17 W 1015,0 0,0
21.05.2019 18:00:00 21,4 15,0 22 12 32 17 W 1015,2 0,0
21.05.2019 17:00:00 21,1 15,0 16 9 30 16 W 1015,6 0,0
21.05.2019 16:00:00 20,2 14,8 19 11 32 18 W 1016,1 0,0
21.05.2019 15:00:00 20,3 14,2 19 11 31 17 W 1016,3 0,0
21.05.2019 14:00:00 19,9 14,5 18 10 28 15 W 1016,2 -
21.05.2019 13:00:00 20,0 13,9 15 8 22 12 W 1016,4 0,0
21.05.2019 12:00:00 19,9 13,9 9 5 20 11 W 1016,4 0,0
21.05.2019 11:00:00 20,0 14,3 5 3 12 7 NW 1016,4 0,0
21.05.2019 10:00:00 18,2 13,9 9 5 17 9 N 1016,0 0,0
21.05.2019 09:00:00 17,5 13,7 13 7 17 9 NNW 1015,7 0,0
21.05.2019 08:00:00 17,7 13,9 12 6 16 9 NNW 1015,4 -
21.05.2019 07:00:00 17,6 13,6 13 7 18 10 NW 1014,7 0,0
21.05.2019 06:00:00 17,9 13,7 13 7 20 11 NW 1014,4 0,0
21.05.2019 05:00:00 18,1 13,4 14 8 24 13 NW 1014,6 0,0
21.05.2019 04:00:00 18,3 13,4 14 8 25 13 NW 1014,4 0,0
21.05.2019 03:00:00 18,8 13,7 16 8 24 13 NW 1014,6 0,0
21.05.2019 02:00:00 19,4 14,2 15 8 29 16 NNW 1014,8 -
21.05.2019 01:00:00 18,8 15,4 13 7 24 13 WNW 1014,7 0,0
21.05.2019 00:00:00 18,6 15,1 15 8 24 13 W 1014,9 0,0
20.05.2019 23:00:00 18,9 14,6 15 8 24 13 W 1014,8 0,0
20.05.2019 22:00:00 19,0 14,0 16 9 31 17 W 1014,0 0,0
20.05.2019 21:00:00 19,5 12,2 18 10 34 18 W 1013,7 0,0
20.05.2019 20:00:00 20,6 14,7 22 12 33 18 W 1013,5 -
20.05.2019 19:00:00 21,3 9,8 19 11 31 17 W 1013,6 0,0
20.05.2019 18:00:00 21,6 8,5 18 10 26 14 W 1013,7 0,0
20.05.2019 17:00:00 20,9 8,5 17 9 26 14 W 1014,0 0,0
20.05.2019 16:00:00 20,2 9,7 18 10 27 14 W 1014,5 0,0
20.05.2019 15:00:00 20,4 10,5 16 9 26 14 W 1014,8 0,0
20.05.2019 14:00:00 21,1 10,5 17 9 24 13 W 1015,0 -
20.05.2019 13:00:00 19,6 12,6 15 8 23 12 W 1014,9 0,0
20.05.2019 12:00:00 19,2 13,9 16 9 20 11 WNW 1014,9 0,0
20.05.2019 11:00:00 19,6 13,9 10 5 16 9 W 1014,6 0,0
20.05.2019 10:00:00 17,9 12,3 14 8 18 10 NNW 1014,3 0,0
20.05.2019 09:00:00 17,6 12,3 15 8 18 10 NNW 1014,0 0,0
20.05.2019 08:00:00 17,8 13,9 4 2 10 6 NNW 1013,4 -
20.05.2019 07:00:00 17,3 13,5 4 2 13 7 WNW 1013,0 0,0
20.05.2019 06:00:00 17,9 13,9 9 5 18 10 NW 1012,8 0,0
20.05.2019 05:00:00 18,1 14,2 12 6 22 12 NW 1013,0 0,0
20.05.2019 04:00:00 18,3 14,4 14 8 23 12 NW 1013,1 0,0
20.05.2019 03:00:00 18,0 15,8 10 6 16 9 W 1013,9 0,0
20.05.2019 02:00:00 18,3 16,1 9 5 15 8 SSW 1014,3 -
20.05.2019 01:00:00 18,4 16,0 8 4 17 9 SSW 1014,6 0,0
20.05.2019 00:00:00 18,3 15,5 10 5 24 13 WSW 1014,8 0,0
19.05.2019 23:00:00 18,3 15,5 13 7 30 16 W 1014,6 0,0
19.05.2019 22:00:00 18,5 15,7 21 11 32 18 W 1014,1 0,0
19.05.2019 21:00:00 18,4 15,1 20 11 32 17 W 1014,0 0,0
19.05.2019 20:00:00 18,9 14,8 19 10 41 22 W 1013,8 -
19.05.2019 19:00:00 20,0 14,1 21 11 39 21 W 1014,0 0,0
19.05.2019 18:00:00 20,1 13,4 22 12 35 19 WSW 1014,3 0,0
19.05.2019 17:00:00 20,3 12,7 19 11 33 18 WSW 1014,7 0,0
19.05.2019 16:00:00 19,7 11,4 19 10 32 18 WSW 1015,3 0,0
19.05.2019 15:00:00 19,7 11,4 18 10 29 16 W 1015,7 0,0
19.05.2019 14:00:00 19,3 11,1 16 8 29 16 W 1015,4 -
19.05.2019 13:00:00 18,4 10,5 16 8 28 15 W 1015,8 0,0
19.05.2019 12:00:00 17,5 9,7 21 11 33 18 WNW 1016,1 0,0
19.05.2019 11:00:00 17,0 9,4 22 12 34 18 WNW 1015,8 0,0
19.05.2019 10:00:00 16,5 9,7 23 13 36 19 WNW 1015,7 0,0
19.05.2019 09:00:00 16,6 9,6 18 10 34 19 NW 1015,1 0,0
19.05.2019 08:00:00 16,1 9,8 17 9 32 17 NW 1014,9 -
19.05.2019 07:00:00 16,4 10,6 17 9 30 16 NW 1014,6 0,0
19.05.2019 06:00:00 16,3 10,4 20 11 34 18 NW 1014,6 0,0
19.05.2019 05:00:00 16,9 10,5 19 10 32 17 NW 1014,7 0,0
19.05.2019 04:00:00 17,1 10,4 21 12 36 19 NW 1014,7 0,0
19.05.2019 03:00:00 17,3 10,9 19 10 38 20 NW 1014,8 0,0
19.05.2019 02:00:00 18,2 9,6 22 12 36 20 NW 1015,1 -
19.05.2019 01:00:00 18,8 10,0 22 12 41 22 NW 1015,2 0,0
19.05.2019 00:00:00 19,1 11,4 18 10 25 14 NW 1015,4 0,0
18.05.2019 23:00:00 18,5 13,6 11 6 32 17 W 1015,4 0,0
18.05.2019 22:00:00 18,1 13,0 21 11 39 21 W 1015,1 0,0
18.05.2019 21:00:00 18,2 12,2 25 14 45 24 W 1015,1 0,0
18.05.2019 20:00:00 18,9 11,0 26 14 48 26 W 1014,6 -
18.05.2019 19:00:00 19,1 10,4 24 13 46 25 W 1014,6 0,0
18.05.2019 18:00:00 19,3 10,5 24 13 43 23 W 1014,6 0,0
18.05.2019 17:00:00 19,1 10,4 23 13 40 22 W 1014,8 0,0
18.05.2019 16:00:00 19,3 9,2 22 12 40 22 W 1015,2 0,0
18.05.2019 15:00:00 18,4 8,1 22 12 36 19 WNW 1015,3 0,0
18.05.2019 14:00:00 17,9 7,8 25 13 36 20 WNW 1015,5 -
18.05.2019 13:00:00 17,5 8,9 24 13 35 19 WNW 1015,7 0,0
18.05.2019 12:00:00 17,1 9,3 23 12 34 19 WNW 1015,5 0,0
18.05.2019 11:00:00 16,7 8,4 18 10 30 16 NW 1015,1 0,0
18.05.2019 10:00:00 16,0 8,9 23 12 37 20 NNW 1014,9 0,0
18.05.2019 09:00:00 15,5 8,7 25 13 34 18 NW 1014,5 0,0
18.05.2019 08:00:00 15,1 8,4 24 13 45 24 NW 1014,3 -
18.05.2019 07:00:00 15,2 8,3 23 12 36 20 NW 1013,9 0,0
18.05.2019 06:00:00 15,8 8,3 21 11 32 18 NW 1013,6 0,0
18.05.2019 05:00:00 16,1 8,5 21 12 34 19 NW 1013,5 0,0
18.05.2019 04:00:00 17,0 9,4 24 13 35 19 NNW 1013,7 0,0
18.05.2019 03:00:00 17,8 9,2 24 13 35 19 NW 1013,9 0,0
18.05.2019 02:00:00 18,5 9,8 26 14 41 22 NW 1014,1 -
18.05.2019 01:00:00 19,0 11,8 15 8 28 15 NW 1014,0 0,0
18.05.2019 00:00:00 18,4 14,7 12 6 31 17 W 1014,5 0,0
17.05.2019 23:00:00 18,1 13,6 21 11 36 20 W 1014,6 0,0
17.05.2019 22:00:00 18,0 12,2 22 12 41 22 W 1014,1 0,0
17.05.2019 21:00:00 18,1 11,4 24 13 44 24 W 1014,2 0,0
17.05.2019 20:00:00 19,1 10,9 26 14 41 22 W 1014,1 -
17.05.2019 19:00:00 19,2 11,0 25 14 39 21 W 1014,3 0,0
17.05.2019 18:00:00 19,9 10,3 24 13 43 23 W 1014,7 0,0
17.05.2019 17:00:00 19,7 10,4 26 14 45 24 W 1015,1 0,0
17.05.2019 16:00:00 19,3 10,3 22 12 35 19 W 1015,5 0,0
17.05.2019 15:00:00 19,5 8,8 16 8 34 18 W 1015,8 0,0
17.05.2019 14:00:00 18,3 8,5 20 11 30 16 W 1016,2 -

tt = temperature
td = dewpoint
ff = wind speed
fx = gusts
dd = wind direction
ppp = reduced air pressure
rr = precipitation

Next stations